Time;durP1;ratioP1;P1;durP2;ratioP2;P2;SDS_P1;SDS_P2;PMS_P1;PMS_P2;Temp;Humidity;BMP_temperature;BMP_pressure;BME280_temperature;BME280_humidity;BME280_pressure;Samples;Min_cycle;Max_cycle;Signal;HPM_P1;HPM_P2
2022/08/09 00:02:15;;;;;;;13.43;6.70;;;;;;;;;;6259030;28;20056;-61
2022/08/09 00:05:18;;;;;;;12.95;6.97;;;;;;;;;;6263123;28;20293;-60
2022/08/09 00:08:18;;;;;;;13.13;6.80;;;;;;;;;;6260047;28;20483;-60
2022/08/09 00:11:20;;;;;;;9.68;5.93;;;;;;;;;;6258314;28;20091;-59
2022/08/09 00:14:22;;;;;;;13.02;6.95;;;;;;;;;;6259116;28;20049;-60
2022/08/09 00:17:23;;;;;;;10.98;6.53;;;;;;;;;;6259746;28;20193;-61
2022/08/09 00:20:24;;;;;;;12.98;6.65;;;;;;;;;;6261000;28;20048;-61
2022/08/09 00:23:24;;;;;;;15.52;6.97;;;;;;;;;;6259343;28;20050;-58
2022/08/09 00:26:26;;;;;;;11.18;7.15;;;;;;;;;;6261209;28;20061;-60
2022/08/09 00:29:27;;;;;;;12.10;7.30;;;;;;;;;;6258659;28;20094;-60
2022/08/09 00:32:27;;;;;;;14.43;7.93;;;;;;;;;;6259513;28;20076;-61
2022/08/09 00:35:28;;;;;;;11.73;7.00;;;;;;;;;;6260783;28;20053;-60
2022/08/09 00:38:28;;;;;;;13.25;7.18;;;;;;;;;;6258159;28;20572;-60
2022/08/09 00:41:29;;;;;;;12.27;7.32;;;;;;;;;;6260951;28;20044;-61
2022/08/09 00:44:30;;;;;;;14.30;7.00;;;;;;;;;;6259305;28;20052;-60
2022/08/09 00:47:31;;;;;;;13.45;7.00;;;;;;;;;;6258706;28;20431;-60
2022/08/09 00:50:32;;;;;;;10.40;6.85;;;;;;;;;;6261260;28;20491;-60
2022/08/09 00:53:36;;;;;;;14.05;6.80;;;;;;;;;;6258282;28;20742;-61
2022/08/09 00:56:36;;;;;;;14.95;7.47;;;;;;;;;;6259865;28;20052;-61
2022/08/09 00:59:43;;;;;;;16.30;6.88;;;;;;;;;;6258641;28;20060;-60
2022/08/09 01:02:55;;;;;;;12.93;7.32;;;;;;;;;;6258159;28;20049;-61
2022/08/09 01:06:15;;;;;;;12.85;7.20;;;;;;;;;;6258927;28;20082;-61
2022/08/09 01:09:31;;;;;;;12.30;6.78;;;;;;;;;;6258431;28;20052;-60
2022/08/09 01:12:53;;;;;;;13.25;6.68;;;;;;;;;;6258400;28;20090;-61
2022/08/09 01:15:56;;;;;;;11.35;6.60;;;;;;;;;;6260949;28;20037;-61
2022/08/09 01:19:01;;;;;;;12.20;7.25;;;;;;;;;;6257126;28;20517;-60
2022/08/09 01:22:20;;;;;;;12.63;7.25;;;;;;;;;;6260150;28;20048;-60
2022/08/09 01:25:46;;;;;;;13.70;6.72;;;;;;;;;;6259287;28;20053;-60
2022/08/09 01:28:52;;;;;;;13.05;6.72;;;;;;;;;;6252108;28;20423;-61
2022/08/09 01:31:56;;;;;;;12.45;6.53;;;;;;;;;;6251143;28;22193;-59
2022/08/09 01:35:00;;;;;;;13.25;7.22;;;;;;;;;;6251380;28;20517;-60
2022/08/09 01:38:08;;;;;;;14.38;6.65;;;;;;;;;;6252429;28;20476;-60
2022/08/09 01:41:15;;;;;;;12.75;6.78;;;;;;;;;;6256626;28;20132;-61
2022/08/09 01:44:16;;;;;;;11.35;6.45;;;;;;;;;;6254222;28;20056;-61
2022/08/09 01:47:18;;;;;;;16.83;7.35;;;;;;;;;;6258330;28;20143;-60
2022/08/09 01:50:22;;;;;;;11.75;6.25;;;;;;;;;;6256704;28;20045;-61
2022/08/09 01:53:24;;;;;;;12.73;6.90;;;;;;;;;;6256340;28;20080;-60
2022/08/09 01:56:27;;;;;;;12.85;6.85;;;;;;;;;;6257286;28;20187;-60
2022/08/09 01:59:29;;;;;;;11.38;6.85;;;;;;;;;;6254821;28;20056;-60
2022/08/09 02:02:31;;;;;;;9.98;6.80;;;;;;;;;;6256546;28;20055;-61
2022/08/09 02:05:34;;;;;;;10.43;6.88;;;;;;;;;;6259453;28;20479;-60
2022/08/09 02:08:37;;;;;;;12.32;7.03;;;;;;;;;;6258078;28;20391;-60
2022/08/09 02:11:38;;;;;;;12.63;6.80;;;;;;;;;;6251017;28;20051;-60
2022/08/09 02:14:42;;;;;;;11.57;6.37;;;;;;;;;;6255455;28;20056;-60
2022/08/09 02:17:45;;;;;;;10.15;6.28;;;;;;;;;;6254071;28;20549;-61
2022/08/09 02:20:50;;;;;;;11.55;6.60;;;;;;;;;;6257383;28;20056;-61
2022/08/09 02:23:56;;;;;;;12.30;6.30;;;;;;;;;;6258763;28;20689;-61
2022/08/09 02:27:02;;;;;;;12.23;6.70;;;;;;;;;;6257191;28;20171;-60
2022/08/09 02:30:04;;;;;;;13.38;6.85;;;;;;;;;;6256753;28;20060;-60
2022/08/09 02:33:09;;;;;;;11.70;6.78;;;;;;;;;;6258214;28;20049;-60
2022/08/09 02:36:17;;;;;;;13.25;6.80;;;;;;;;;;6257877;28;20091;-61
2022/08/09 02:39:22;;;;;;;14.20;6.88;;;;;;;;;;6254074;28;20578;-61
2022/08/09 02:42:29;;;;;;;14.10;6.82;;;;;;;;;;6261345;28;20559;-60
2022/08/09 02:45:33;;;;;;;13.25;7.55;;;;;;;;;;6259214;28;20529;-60
2022/08/09 02:48:35;;;;;;;12.93;7.47;;;;;;;;;;6259379;28;20151;-61
2022/08/09 02:51:38;;;;;;;13.02;7.32;;;;;;;;;;6255023;28;20067;-61
2022/08/09 02:54:40;;;;;;;12.65;6.60;;;;;;;;;;6240693;28;20045;-60
2022/08/09 02:57:43;;;;;;;12.07;6.57;;;;;;;;;;6249808;28;20065;-61
2022/08/09 03:00:44;;;;;;;12.77;6.68;;;;;;;;;;6252862;28;20063;-61
2022/08/09 03:03:45;;;;;;;14.40;7.28;;;;;;;;;;6252738;28;20063;-60
2022/08/09 03:06:47;;;;;;;13.95;7.15;;;;;;;;;;6253504;28;20539;-61
2022/08/09 03:09:48;;;;;;;11.70;6.90;;;;;;;;;;6251421;28;20128;-61
2022/08/09 03:12:49;;;;;;;11.70;6.68;;;;;;;;;;6253597;28;20128;-60
2022/08/09 03:15:50;;;;;;;13.93;6.87;;;;;;;;;;6251805;28;20147;-61
2022/08/09 03:18:51;;;;;;;10.23;6.22;;;;;;;;;;6251558;28;20860;-61
2022/08/09 03:21:54;;;;;;;14.13;7.38;;;;;;;;;;6253689;28;20392;-60
2022/08/09 03:24:54;;;;;;;13.05;7.05;;;;;;;;;;6251362;28;20119;-61
2022/08/09 03:27:56;;;;;;;13.75;6.72;;;;;;;;;;6249411;28;20388;-59
2022/08/09 03:30:58;;;;;;;12.30;6.57;;;;;;;;;;6251302;28;20140;-60
2022/08/09 03:34:01;;;;;;;9.57;7.03;;;;;;;;;;6254845;28;20714;-60
2022/08/09 03:37:02;;;;;;;10.98;6.72;;;;;;;;;;6252679;28;20052;-60
2022/08/09 03:40:04;;;;;;;13.30;7.18;;;;;;;;;;6258501;28;20119;-61
2022/08/09 03:43:04;;;;;;;10.40;6.57;;;;;;;;;;6258052;28;20048;-60
2022/08/09 03:46:05;;;;;;;11.25;6.70;;;;;;;;;;6254607;28;20294;-61
2022/08/09 03:49:06;;;;;;;10.43;6.72;;;;;;;;;;6257580;28;20844;-61
2022/08/09 03:52:07;;;;;;;12.27;6.95;;;;;;;;;;6256779;28;20562;-61
2022/08/09 03:55:10;;;;;;;11.70;6.53;;;;;;;;;;6256578;28;20049;-60
2022/08/09 03:58:11;;;;;;;12.20;6.50;;;;;;;;;;6250997;28;20049;-61
2022/08/09 04:01:12;;;;;;;12.13;7.30;;;;;;;;;;6255748;28;20052;-60
2022/08/09 04:04:14;;;;;;;11.30;7.05;;;;;;;;;;6255031;28;20052;-61
2022/08/09 04:07:15;;;;;;;12.85;7.00;;;;;;;;;;6255068;28;20112;-61
2022/08/09 04:10:16;;;;;;;13.87;6.83;;;;;;;;;;6256643;28;20053;-60
2022/08/09 04:13:17;;;;;;;13.38;7.53;;;;;;;;;;6256583;28;20518;-60
2022/08/09 04:16:17;;;;;;;15.90;7.47;;;;;;;;;;6258328;28;20045;-60
2022/08/09 04:19:18;;;;;;;13.68;7.38;;;;;;;;;;6257322;28;20049;-60
2022/08/09 04:22:18;;;;;;;18.40;7.43;;;;;;;;;;6255777;28;20044;-60
2022/08/09 04:25:19;;;;;;;17.23;7.35;;;;;;;;;;6254666;28;20041;-60
2022/08/09 04:28:21;;;;;;;14.85;7.28;;;;;;;;;;6255794;28;20045;-61
2022/08/09 04:31:21;;;;;;;;;;;;;;;;;;6255168;28;20064;-63
2022/08/09 04:34:22;;;;;;;12.95;6.82;;;;;;;;;;6256209;28;20302;-60
2022/08/09 04:37:23;;;;;;;13.65;7.50;;;;;;;;;;6251209;28;20060;-60
2022/08/09 04:40:47;;;;;;;10.10;6.97;;;;;;;;;;6252186;28;20121;-60
2022/08/09 04:43:44;;;;;;;13.07;7.03;;;;;;;;;;6257646;28;20102;-60
2022/08/09 04:46:45;;;;;;;16.60;7.25;;;;;;;;;;6251272;28;20057;-59
2022/08/09 04:49:45;;;;;;;12.73;6.60;;;;;;;;;;6249504;28;20049;-59
2022/08/09 04:52:46;;;;;;;11.98;6.80;;;;;;;;;;6253640;28;20049;-59
2022/08/09 04:55:46;;;;;;;13.65;7.03;;;;;;;;;;6253357;28;20045;-59
2022/08/09 04:58:47;;;;;;;12.55;6.43;;;;;;;;;;6253163;28;20045;-57
2022/08/09 05:01:47;;;;;;;15.15;6.38;;;;;;;;;;6253752;28;20056;-59
2022/08/09 05:04:48;;;;;;;12.77;6.40;;;;;;;;;;6255361;28;20053;-59
2022/08/09 05:07:48;;;;;;;13.48;6.40;;;;;;;;;;6255988;28;20397;-59
2022/08/09 05:10:49;;;;;;;10.88;5.63;;;;;;;;;;6258972;28;20547;-60
2022/08/09 05:13:49;;;;;;;10.63;5.90;;;;;;;;;;6256728;28;20053;-59
2022/08/09 05:16:52;;;;;;;9.68;6.20;;;;;;;;;;6256550;28;20049;-59
2022/08/09 05:19:53;;;;;;;10.05;5.40;;;;;;;;;;6255827;28;20052;-57
2022/08/09 05:22:54;;;;;;;11.60;5.03;;;;;;;;;;6255128;28;20487;-59
2022/08/09 05:25:54;;;;;;;11.23;5.20;;;;;;;;;;6254573;28;20045;-59
2022/08/09 05:28:55;;;;;;;9.68;5.07;;;;;;;;;;6251323;28;20563;-59
2022/08/09 05:31:59;;;;;;;8.65;4.90;;;;;;;;;;6252197;28;21645;-60
2022/08/09 05:34:59;;;;;;;9.98;4.95;;;;;;;;;;6250671;28;20075;-58
2022/08/09 05:38:00;;;;;;;12.48;4.68;;;;;;;;;;6255754;28;20044;-60
2022/08/09 05:41:00;;;;;;;7.90;4.63;;;;;;;;;;6253498;28;20072;-59
2022/08/09 05:44:01;;;;;;;11.45;4.90;;;;;;;;;;6256342;28;20060;-59
2022/08/09 05:47:02;;;;;;;9.77;4.60;;;;;;;;;;6255540;28;20049;-60
2022/08/09 05:50:02;;;;;;;9.63;5.30;;;;;;;;;;6257444;28;20094;-60
2022/08/09 05:53:03;;;;;;;9.50;4.93;;;;;;;;;;6258167;28;20068;-59
2022/08/09 05:56:04;;;;;;;9.00;4.67;;;;;;;;;;6258160;28;20052;-58
2022/08/09 05:59:05;;;;;;;9.90;4.88;;;;;;;;;;6256109;28;21393;-58
2022/08/09 06:02:05;;;;;;;10.60;5.07;;;;;;;;;;6258395;28;20064;-59
2022/08/09 06:05:07;;;;;;;8.90;5.00;;;;;;;;;;6257095;28;20057;-60
2022/08/09 06:08:07;;;;;;;10.23;5.20;;;;;;;;;;6257321;28;20234;-60
2022/08/09 06:11:08;;;;;;;9.88;4.72;;;;;;;;;;6256590;28;20049;-60
2022/08/09 06:14:09;;;;;;;9.17;4.43;;;;;;;;;;6253054;28;20053;-60
2022/08/09 06:17:10;;;;;;;8.30;3.70;;;;;;;;;;6249683;28;21454;-59
2022/08/09 06:20:11;;;;;;;12.05;4.38;;;;;;;;;;6251981;28;20056;-59
2022/08/09 06:23:11;;;;;;;7.90;3.80;;;;;;;;;;6248578;28;20052;-57
2022/08/09 06:26:13;;;;;;;8.47;3.57;;;;;;;;;;6249821;28;20044;-59
2022/08/09 06:29:14;;;;;;;8.55;3.60;;;;;;;;;;6249671;28;20053;-60
2022/08/09 06:32:15;;;;;;;10.77;3.70;;;;;;;;;;6249883;28;20063;-59
2022/08/09 06:35:15;;;;;;;7.60;3.67;;;;;;;;;;6249789;28;20052;-60
2022/08/09 06:38:16;;;;;;;8.70;3.63;;;;;;;;;;6250764;28;20053;-58
2022/08/09 06:41:17;;;;;;;8.63;3.63;;;;;;;;;;6250529;28;20732;-59
2022/08/09 06:44:18;;;;;;;7.40;3.55;;;;;;;;;;6250702;28;20132;-59
2022/08/09 06:47:18;;;;;;;9.30;3.37;;;;;;;;;;6247560;28;20159;-60
2022/08/09 06:50:19;;;;;;;7.57;3.20;;;;;;;;;;6247848;28;20048;-59
2022/08/09 06:53:20;;;;;;;4.93;3.03;;;;;;;;;;6252211;28;20055;-60
2022/08/09 06:56:20;;;;;;;7.97;3.27;;;;;;;;;;6250238;28;20052;-60
2022/08/09 06:59:21;;;;;;;10.77;3.37;;;;;;;;;;6248994;28;20053;-60
2022/08/09 07:02:22;;;;;;;4.70;3.13;;;;;;;;;;6253018;28;20057;-61
2022/08/09 07:05:23;;;;;;;6.70;3.10;;;;;;;;;;6250846;28;20526;-60
2022/08/09 07:08:23;;;;;;;5.17;2.77;;;;;;;;;;6251729;28;20147;-59
2022/08/09 07:11:24;;;;;;;9.43;2.83;;;;;;;;;;6250022;28;20131;-59
2022/08/09 07:14:25;;;;;;;5.77;3.10;;;;;;;;;;6254638;28;20052;-60
2022/08/09 07:17:25;;;;;;;5.43;3.17;;;;;;;;;;6243551;28;20049;-60
2022/08/09 07:20:26;;;;;;;4.40;2.40;;;;;;;;;;6256378;28;20045;-60
2022/08/09 07:23:26;;;;;;;4.47;2.60;;;;;;;;;;6255733;28;20064;-60
2022/08/09 07:26:28;;;;;;;6.60;2.70;;;;;;;;;;6257606;28;20064;-60
2022/08/09 07:29:29;;;;;;;;;;;;;;;;;;6254756;28;20055;-59
2022/08/09 07:32:29;;;;;;;5.78;2.60;;;;;;;;;;6258836;28;20318;-59
2022/08/09 07:35:30;;;;;;;4.60;2.30;;;;;;;;;;6253707;28;20105;-60
2022/08/09 07:38:31;;;;;;;6.00;2.40;;;;;;;;;;6253241;28;20557;-60
2022/08/09 07:41:31;;;;;;;6.70;2.33;;;;;;;;;;6255716;28;20077;-59
2022/08/09 07:44:32;;;;;;;6.20;2.90;;;;;;;;;;6257258;28;20053;-59
2022/08/09 07:47:32;;;;;;;5.77;3.03;;;;;;;;;;6252093;28;20049;-58
2022/08/09 07:50:34;;;;;;;5.47;2.60;;;;;;;;;;6255831;28;20856;-59
2022/08/09 07:53:35;;;;;;;;;;;;;;;;;;6259201;28;20049;-60
2022/08/09 07:56:36;;;;;;;8.73;2.80;;;;;;;;;;6254623;28;19996;-60
2022/08/09 07:59:37;;;;;;;7.85;2.20;;;;;;;;;;6256499;28;20195;-59
2022/08/09 08:02:38;;;;;;;8.20;2.20;;;;;;;;;;6259693;28;20053;-60
2022/08/09 08:05:38;;;;;;;6.70;2.10;;;;;;;;;;6261993;28;20857;-57
2022/08/09 08:08:39;;;;;;;6.10;1.93;;;;;;;;;;6259702;28;20057;-59
2022/08/09 08:11:40;;;;;;;5.73;2.20;;;;;;;;;;6262086;28;21272;-60
2022/08/09 08:14:40;;;;;;;3.93;2.07;;;;;;;;;;6262421;28;20510;-60
2022/08/09 08:17:42;;;;;;;5.30;2.33;;;;;;;;;;6258192;28;20049;-60
2022/08/09 08:20:42;;;;;;;;;;;;;;;;;;6252588;28;20115;-60
2022/08/09 08:23:43;;;;;;;6.50;2.20;;;;;;;;;;6256869;28;20962;-58
2022/08/09 08:26:43;;;;;;;6.10;2.10;;;;;;;;;;6255736;28;20523;-59
2022/08/09 08:29:44;;;;;;;6.93;2.00;;;;;;;;;;6255066;28;20043;-59
2022/08/09 08:32:45;;;;;;;5.60;2.73;;;;;;;;;;6254301;28;20057;-60
2022/08/09 08:35:45;;;;;;;7.20;2.10;;;;;;;;;;6257024;28;20049;-60
2022/08/09 08:38:46;;;;;;;7.87;1.97;;;;;;;;;;6252972;28;20060;-60
2022/08/09 08:41:46;;;;;;;4.67;2.00;;;;;;;;;;6255668;28;20045;-60
2022/08/09 08:44:51;;;;;;;4.37;2.27;;;;;;;;;;6259189;28;20049;-60
2022/08/09 08:47:52;;;;;;;5.50;1.85;;;;;;;;;;6259554;28;20094;-60
2022/08/09 08:50:53;;;;;;;6.77;1.97;;;;;;;;;;6260051;28;20045;-60
2022/08/09 08:53:53;;;;;;;3.23;1.70;;;;;;;;;;6261246;28;20045;-60
2022/08/09 08:56:55;;;;;;;6.80;2.27;;;;;;;;;;6257780;28;20048;-59
2022/08/09 08:59:55;;;;;;;4.13;2.00;;;;;;;;;;6260574;28;20048;-60
2022/08/09 09:02:58;;;;;;;4.23;1.70;;;;;;;;;;6256365;28;20060;-58
2022/08/09 09:06:01;;;;;;;4.60;2.05;;;;;;;;;;6250700;28;20090;-59
2022/08/09 09:09:04;;;;;;;5.15;2.30;;;;;;;;;;6252477;28;20048;-59
2022/08/09 09:12:07;;;;;;;7.32;2.00;;;;;;;;;;6254748;28;20057;-58
2022/08/09 09:15:08;;;;;;;3.30;1.80;;;;;;;;;;6251426;28;20053;-60
2022/08/09 09:18:15;;;;;;;4.75;2.05;;;;;;;;;;6251397;28;20113;-60
2022/08/09 09:21:15;;;;;;;5.13;1.73;;;;;;;;;;6253797;28;20563;-59
2022/08/09 09:24:16;;;;;;;3.27;1.70;;;;;;;;;;6251731;28;20139;-59
2022/08/09 09:27:19;;;;;;;4.23;2.33;;;;;;;;;;6248933;28;20053;-60
2022/08/09 09:30:20;;;;;;;4.30;1.75;;;;;;;;;;6253464;28;20056;-59
2022/08/09 09:33:31;;;;;;;5.43;1.77;;;;;;;;;;6249424;28;20538;-60
2022/08/09 09:36:39;;;;;;;3.72;1.77;;;;;;;;;;6250893;28;20052;-60
2022/08/09 09:39:51;;;;;;;4.22;1.92;;;;;;;;;;6250291;28;20048;-60
2022/08/09 09:42:55;;;;;;;4.38;1.70;;;;;;;;;;6254004;28;20449;-60
2022/08/09 09:45:56;;;;;;;3.90;1.88;;;;;;;;;;6256089;28;20059;-59
2022/08/09 09:49:11;;;;;;;7.47;2.42;;;;;;;;;;6253168;28;20071;-59
2022/08/09 09:52:12;;;;;;;6.43;1.98;;;;;;;;;;6259918;28;20065;-60
2022/08/09 09:55:14;;;;;;;3.33;1.90;;;;;;;;;;6257836;28;20591;-60
2022/08/09 09:58:14;;;;;;;4.28;1.90;;;;;;;;;;6258398;28;20136;-60
2022/08/09 10:01:20;;;;;;;6.70;1.80;;;;;;;;;;6254382;28;20430;-60
2022/08/09 10:04:20;;;;;;;6.68;1.90;;;;;;;;;;6255754;28;20139;-59
2022/08/09 10:07:23;;;;;;;7.27;1.87;;;;;;;;;;6250650;28;20056;-60
2022/08/09 10:10:29;;;;;;;6.60;2.08;;;;;;;;;;6250644;28;20056;-60
2022/08/09 10:13:39;;;;;;;3.70;1.65;;;;;;;;;;6248821;28;20059;-60
2022/08/09 10:16:40;;;;;;;3.25;1.50;;;;;;;;;;6250022;28;20075;-60
2022/08/09 10:19:41;;;;;;;5.88;1.70;;;;;;;;;;6252932;28;20063;-59
2022/08/09 10:22:41;;;;;;;4.33;1.90;;;;;;;;;;6251647;28;20056;-59
2022/08/09 10:25:44;;;;;;;4.57;1.80;;;;;;;;;;6250441;28;20060;-60
2022/08/09 10:28:44;;;;;;;6.25;1.90;;;;;;;;;;6251445;28;20698;-60
2022/08/09 10:31:45;;;;;;;4.53;2.03;;;;;;;;;;6251918;28;20048;-59
2022/08/09 10:34:46;;;;;;;6.20;1.98;;;;;;;;;;6250209;28;20557;-59
2022/08/09 10:37:47;;;;;;;5.87;2.07;;;;;;;;;;6249407;28;20049;-60
2022/08/09 10:40:47;;;;;;;4.97;2.30;;;;;;;;;;6249431;28;20044;-60
2022/08/09 10:43:50;;;;;;;4.28;1.63;;;;;;;;;;6251804;28;20045;-60
2022/08/09 10:47:21;;;;;;;3.70;1.90;;;;;;;;;;6248119;28;20061;-60
2022/08/09 10:54:01;;;;;;;4.35;1.80;;;;;;;;;;6253336;28;20640;-60
2022/08/09 10:57:07;;;;;;;5.75;1.90;;;;;;;;;;6251238;28;20086;-60
2022/08/09 11:00:34;;;;;;;4.70;1.90;;;;;;;;;;6255850;28;20049;-59
2022/08/09 11:03:35;;;;;;;7.55;1.92;;;;;;;;;;6250415;28;20098;-60
2022/08/09 11:06:37;;;;;;;5.00;1.90;;;;;;;;;;6255150;28;20068;-60
2022/08/09 11:09:38;;;;;;;5.85;1.90;;;;;;;;;;6256901;28;20493;-60
2022/08/09 11:12:38;;;;;;;6.33;2.30;;;;;;;;;;6254532;28;20514;-60
2022/08/09 11:15:39;;;;;;;4.77;2.00;;;;;;;;;;6256126;28;20055;-60
2022/08/09 11:18:46;;;;;;;3.33;1.70;;;;;;;;;;6253880;28;20107;-60
2022/08/09 11:21:53;;;;;;;5.93;2.20;;;;;;;;;;6255398;28;20052;-60
2022/08/09 11:24:56;;;;;;;5.30;1.80;;;;;;;;;;6255191;28;20713;-60
2022/08/09 11:27:57;;;;;;;8.75;2.03;;;;;;;;;;6253509;28;20627;-60
2022/08/09 11:31:00;;;;;;;8.25;2.28;;;;;;;;;;6257143;28;20574;-59
2022/08/09 11:34:05;;;;;;;5.22;2.00;;;;;;;;;;6254061;28;20044;-60
2022/08/09 11:37:07;;;;;;;5.60;1.98;;;;;;;;;;6252437;28;20061;-60
2022/08/09 11:40:27;;;;;;;4.60;2.10;;;;;;;;;;6254219;28;20106;-59
2022/08/09 11:43:27;;;;;;;4.07;1.98;;;;;;;;;;6258426;28;20072;-60
2022/08/09 11:46:55;;;;;;;6.53;1.90;;;;;;;;;;6255581;28;20551;-60
2022/08/09 11:50:02;;;;;;;5.25;1.70;;;;;;;;;;6253197;28;20080;-59
2022/08/09 11:53:03;;;;;;;4.15;1.83;;;;;;;;;;6253627;28;20433;-59
2022/08/09 11:56:17;;;;;;;4.63;1.87;;;;;;;;;;6253072;28;20447;-59
2022/08/09 11:59:27;;;;;;;5.25;1.75;;;;;;;;;;6257408;28;20037;-60
2022/08/09 12:02:29;;;;;;;3.80;1.90;;;;;;;;;;6264647;28;20087;-59
2022/08/09 12:05:35;;;;;;;5.20;1.92;;;;;;;;;;6252195;28;20053;-59
2022/08/09 12:08:36;;;;;;;4.95;1.90;;;;;;;;;;6254690;28;20085;-60
2022/08/09 12:11:36;;;;;;;6.80;1.90;;;;;;;;;;6253559;28;20140;-59
2022/08/09 12:14:37;;;;;;;6.17;2.30;;;;;;;;;;6249969;28;20056;-60
2022/08/09 12:17:37;;;;;;;5.83;1.80;;;;;;;;;;6251179;28;20352;-60
2022/08/09 12:20:40;;;;;;;5.27;1.87;;;;;;;;;;6253256;28;20049;-60
2022/08/09 12:23:46;;;;;;;11.52;2.30;;;;;;;;;;6251280;28;20476;-60
2022/08/09 12:26:50;;;;;;;3.35;1.75;;;;;;;;;;6251994;28;20487;-60
2022/08/09 12:29:54;;;;;;;8.20;2.42;;;;;;;;;;6252245;28;20065;-59
2022/08/09 12:33:00;;;;;;;5.65;2.08;;;;;;;;;;6246671;28;20067;-60
2022/08/09 12:36:03;;;;;;;4.88;2.20;;;;;;;;;;6253313;28;20060;-60
2022/08/09 12:39:13;;;;;;;5.85;1.90;;;;;;;;;;6251439;28;20161;-60
2022/08/09 12:42:14;;;;;;;3.72;1.90;;;;;;;;;;6249736;28;20456;-60
2022/08/09 12:45:14;;;;;;;5.57;2.20;;;;;;;;;;6251744;28;20048;-60
2022/08/09 12:48:16;;;;;;;6.18;1.95;;;;;;;;;;6252076;28;20057;-60
2022/08/09 12:51:18;;;;;;;6.70;2.17;;;;;;;;;;6254493;28;20102;-60
2022/08/09 12:54:18;;;;;;;4.90;2.10;;;;;;;;;;6248465;28;20098;-60
2022/08/09 12:57:42;;;;;;;2.93;1.90;;;;;;;;;;6251794;28;20530;-60
2022/08/09 13:00:43;;;;;;;4.13;1.90;;;;;;;;;;6252678;28;20045;-60
2022/08/09 13:03:54;;;;;;;5.03;2.60;;;;;;;;;;6252947;28;20049;-59
2022/08/09 13:06:55;;;;;;;5.90;2.80;;;;;;;;;;6250865;28;20044;-60
2022/08/09 13:10:03;;;;;;;9.10;3.10;;;;;;;;;;6246379;28;20079;-61
2022/08/09 13:13:04;;;;;;;8.40;2.60;;;;;;;;;;6249141;28;20820;-60
2022/08/09 13:16:07;;;;;;;5.33;2.40;;;;;;;;;;6249803;28;20048;-60
2022/08/09 13:19:08;;;;;;;9.70;2.97;;;;;;;;;;6251472;28;20142;-59
2022/08/09 13:22:18;;;;;;;7.97;2.85;;;;;;;;;;6253284;28;20524;-60
2022/08/09 13:25:18;;;;;;;7.28;3.22;;;;;;;;;;6249813;28;20139;-60
2022/08/09 13:28:19;;;;;;;12.20;3.20;;;;;;;;;;6250563;28;20119;-60
2022/08/09 13:31:19;;;;;;;8.13;3.13;;;;;;;;;;6251961;28;20041;-60
2022/08/09 13:34:20;;;;;;;8.37;2.80;;;;;;;;;;6247018;28;20053;-60
2022/08/09 13:37:21;;;;;;;8.63;2.33;;;;;;;;;;6248617;28;20100;-59
2022/08/09 13:40:22;;;;;;;7.90;2.80;;;;;;;;;;6250081;28;20056;-60
2022/08/09 13:43:22;;;;;;;8.27;3.10;;;;;;;;;;6250241;28;20053;-59
2022/08/09 13:46:23;;;;;;;12.80;3.70;;;;;;;;;;6250483;28;20527;-60
2022/08/09 13:49:23;;;;;;;10.50;3.43;;;;;;;;;;6249987;28;20098;-60
2022/08/09 13:52:24;;;;;;;9.60;3.40;;;;;;;;;;6247494;28;20053;-60
2022/08/09 13:55:25;;;;;;;10.25;3.60;;;;;;;;;;6255657;28;20064;-60
2022/08/09 13:58:25;;;;;;;6.93;3.10;;;;;;;;;;6251934;28;20189;-60
2022/08/09 14:01:26;;;;;;;10.87;3.17;;;;;;;;;;6257557;28;20094;-60
2022/08/09 14:04:27;;;;;;;8.07;3.23;;;;;;;;;;6255487;28;20064;-59
2022/08/09 14:07:28;;;;;;;;;;;;;;;;;;6260969;28;20060;-60
2022/08/09 14:10:28;;;;;;;10.75;2.72;;;;;;;;;;6259064;28;19936;-60
2022/08/09 14:13:29;;;;;;;6.33;2.57;;;;;;;;;;6255135;28;20488;-60
2022/08/09 14:16:30;;;;;;;13.07;2.50;;;;;;;;;;6254456;28;20049;-60
2022/08/09 14:19:30;;;;;;;5.73;2.53;;;;;;;;;;6256117;28;20076;-60
2022/08/09 14:22:31;;;;;;;7.50;2.33;;;;;;;;;;6252610;28;20045;-60
2022/08/09 14:25:32;;;;;;;8.37;4.40;;;;;;;;;;6255243;28;20081;-60
2022/08/09 14:28:32;;;;;;;5.87;3.00;;;;;;;;;;6258520;28;20411;-60
2022/08/09 14:31:33;;;;;;;6.67;2.87;;;;;;;;;;6256300;28;20584;-60
2022/08/09 14:34:34;;;;;;;6.70;2.60;;;;;;;;;;6255241;28;20061;-60
2022/08/09 14:37:34;;;;;;;8.23;3.23;;;;;;;;;;6254223;28;20049;-60
2022/08/09 14:40:35;;;;;;;8.13;2.77;;;;;;;;;;6254937;28;20053;-60
2022/08/09 14:43:35;;;;;;;6.33;2.50;;;;;;;;;;6254610;28;20060;-60
2022/08/09 14:46:36;;;;;;;8.67;3.73;;;;;;;;;;6252041;28;20053;-59
2022/08/09 14:49:37;;;;;;;10.32;3.40;;;;;;;;;;6248660;28;20064;-60
2022/08/09 14:52:37;;;;;;;7.43;3.03;;;;;;;;;;6245828;28;20049;-60
2022/08/09 14:55:39;;;;;;;7.23;2.50;;;;;;;;;;6246012;28;20067;-58
2022/08/09 14:58:40;;;;;;;4.07;2.20;;;;;;;;;;6249443;28;20549;-58
2022/08/09 15:01:40;;;;;;;12.07;5.30;;;;;;;;;;6249019;28;20080;-59
2022/08/09 15:04:41;;;;;;;5.77;2.63;;;;;;;;;;6254607;28;20384;-59
2022/08/09 15:07:42;;;;;;;6.70;2.73;;;;;;;;;;6252664;28;20084;-59
2022/08/09 15:10:42;;;;;;;10.43;2.83;;;;;;;;;;6250993;28;20611;-60
2022/08/09 15:13:43;;;;;;;7.73;2.33;;;;;;;;;;6250823;28;20045;-59
2022/08/09 15:16:44;;;;;;;6.87;2.70;;;;;;;;;;6254327;28;20041;-60
2022/08/09 15:19:44;;;;;;;9.90;3.50;;;;;;;;;;6257211;28;20450;-61
2022/08/09 15:22:45;;;;;;;6.73;2.70;;;;;;;;;;6256771;28;20162;-60
2022/08/09 15:25:45;;;;;;;6.20;2.80;;;;;;;;;;6256545;28;20064;-60
2022/08/09 15:28:46;;;;;;;11.30;3.10;;;;;;;;;;6257359;28;20067;-59
2022/08/09 15:31:47;;;;;;;8.97;2.77;;;;;;;;;;6257191;28;20068;-60
2022/08/09 15:34:47;;;;;;;7.70;2.87;;;;;;;;;;6262418;28;20044;-60
2022/08/09 15:37:49;;;;;;;9.73;2.92;;;;;;;;;;6263849;28;20044;-60
2022/08/09 15:40:49;;;;;;;;;;;;;;;;;;6266110;28;20157;-60
2022/08/09 15:43:50;;;;;;;7.30;3.07;;;;;;;;;;6260069;28;20272;-60
2022/08/09 15:46:50;;;;;;;7.50;2.90;;;;;;;;;;6263421;28;20522;-60
2022/08/09 15:49:52;;;;;;;5.23;2.70;;;;;;;;;;6260980;28;20119;-60
2022/08/09 15:52:52;;;;;;;6.18;3.05;;;;;;;;;;6261246;28;20047;-60
2022/08/09 15:55:53;;;;;;;10.03;2.60;;;;;;;;;;6259860;28;20052;-60
2022/08/09 15:58:53;;;;;;;6.40;3.50;;;;;;;;;;6257421;28;20099;-59
2022/08/09 16:01:54;;;;;;;12.63;3.13;;;;;;;;;;6255148;28;20049;-60
2022/08/09 16:04:55;;;;;;;7.37;2.90;;;;;;;;;;6257933;28;20122;-59
2022/08/09 16:07:55;;;;;;;8.80;2.67;;;;;;;;;;6259008;28;20059;-60
2022/08/09 16:10:57;;;;;;;4.83;2.50;;;;;;;;;;6261250;28;20057;-60
2022/08/09 16:13:57;;;;;;;;;;;;;;;;;;6262837;28;20468;-60
2022/08/09 16:16:58;;;;;;;5.53;2.47;;;;;;;;;;6261734;28;19936;-59
2022/08/09 16:20:00;;;;;;;6.00;2.78;;;;;;;;;;6264283;28;20052;-60
2022/08/09 16:23:00;;;;;;;6.90;2.80;;;;;;;;;;6262671;28;20060;-59
2022/08/09 16:26:01;;;;;;;7.20;2.70;;;;;;;;;;6264952;28;20053;-59
2022/08/09 16:29:05;;;;;;;8.03;3.10;;;;;;;;;;6266059;28;20056;-60
2022/08/09 16:32:06;;;;;;;8.00;3.30;;;;;;;;;;6262516;28;20492;-61
2022/08/09 16:35:06;;;;;;;8.33;2.97;;;;;;;;;;6262500;28;20061;-58
2022/08/09 16:38:08;;;;;;;6.83;3.20;;;;;;;;;;6263137;28;20052;-60
2022/08/09 16:41:08;;;;;;;;;;;;;;;;;;6260943;28;20059;-59
2022/08/09 16:44:11;;;;;;;6.50;3.03;;;;;;;;;;6259201;28;19925;-59
2022/08/09 16:47:11;;;;;;;8.40;3.17;;;;;;;;;;6264192;28;20060;-59
2022/08/09 16:50:13;;;;;;;8.70;3.20;;;;;;;;;;6263932;28;20045;-58
2022/08/09 16:53:14;;;;;;;7.15;3.35;;;;;;;;;;6261060;28;20045;-60
2022/08/09 16:56:14;;;;;;;10.93;3.63;;;;;;;;;;6263018;28;20395;-59
2022/08/09 16:59:15;;;;;;;10.17;3.43;;;;;;;;;;6262344;28;20245;-59
2022/08/09 17:02:16;;;;;;;7.03;3.30;;;;;;;;;;6258380;28;20052;-59
2022/08/09 17:05:17;;;;;;;10.73;3.30;;;;;;;;;;6265318;28;20056;-60
2022/08/09 17:08:18;;;;;;;7.17;3.37;;;;;;;;;;6262980;28;20051;-60
2022/08/09 17:11:19;;;;;;;;;;;;;;;;;;6251881;28;20092;-59
2022/08/09 17:14:20;;;;;;;8.82;3.05;;;;;;;;;;6257704;28;19920;-60
2022/08/09 17:17:21;;;;;;;8.32;3.50;;;;;;;;;;6259066;28;20067;-59
2022/08/09 17:20:22;;;;;;;7.30;3.43;;;;;;;;;;6261102;28;20061;-58
2022/08/09 17:23:23;;;;;;;7.70;3.53;;;;;;;;;;6258693;28;20061;-59
2022/08/09 17:26:23;;;;;;;9.23;3.80;;;;;;;;;;6260493;28;20134;-62
2022/08/09 17:29:25;;;;;;;12.47;3.77;;;;;;;;;;6256405;28;20053;-60
2022/08/09 17:32:25;;;;;;;6.93;3.90;;;;;;;;;;6256435;28;20546;-59
2022/08/09 17:35:26;;;;;;;10.90;3.63;;;;;;;;;;6260987;28;20052;-59
2022/08/09 17:38:27;;;;;;;11.45;3.70;;;;;;;;;;6260222;28;20083;-59
2022/08/09 17:41:28;;;;;;;7.50;3.30;;;;;;;;;;6264208;28;20068;-59
2022/08/09 17:44:28;;;;;;;7.50;3.47;;;;;;;;;;6260010;28;20071;-58
2022/08/09 17:47:29;;;;;;;7.63;3.87;;;;;;;;;;6262013;28;20093;-59
2022/08/09 17:50:30;;;;;;;8.57;3.93;;;;;;;;;;6262840;28;20155;-58
2022/08/09 17:53:31;;;;;;;9.30;3.65;;;;;;;;;;6259130;28;20075;-59
2022/08/09 17:56:31;;;;;;;7.95;3.40;;;;;;;;;;6261099;28;20080;-59
2022/08/09 17:59:32;;;;;;;12.30;3.93;;;;;;;;;;6255780;28;20147;-60
2022/08/09 18:02:34;;;;;;;12.33;4.00;;;;;;;;;;6258586;28;20052;-61
2022/08/09 18:05:35;;;;;;;8.52;3.67;;;;;;;;;;6261549;28;20384;-60
2022/08/09 18:08:36;;;;;;;7.40;3.73;;;;;;;;;;6258265;28;20056;-60
2022/08/09 18:11:37;;;;;;;;;;;;;;;;;;6261085;28;20080;-60
2022/08/09 18:14:39;;;;;;;7.77;3.80;;;;;;;;;;6256923;28;19928;-61